• Join FlightAware (Why Join?)
  • Login
  • US Flag 
11:43PM EST


 

Airport Tracker/Info


-or-


 

Live Flight TrackerFlight Track Log ✈ UAL118 ✈ 19-Apr-2013 ✈ CYQX - KEWR

Flight Track Log - Related Links

Times and Time Zones

All times are in EDT time to prevent confusion due to time zone crossing. See the UAL118 flight status page for this flight to view local times or setup timezone preferences in your user account.

Time Position Orientation Groundspeed Altitude Reporting Facility
EDT Latitude Longitude Course Direction KTS MPH feet Rate Location/Type
10:38AM 48.7590 -54.8420 253° West 303 349 12,600  Level FlightAware
10:38AM 48.7380 -54.9490 253° West 305 351 13,600 2,460 Climbing FlightAware
10:39AM 48.7170 -55.0510 253° West 344 396 16,500 3,480 Climbing FlightAware
10:40AM 48.6970 -55.1540 254° West 348 400 18,600 2,700 Climbing FlightAware
10:41AM 48.6700 -55.2870 253° West 352 405 21,000 1,500 Climbing FlightAware
10:41AM 48.6550 -55.3650 254° West 352 405 21,000  Level FlightAware
10:42AM 48.6400 -55.4460 254° West 352 405 21,000 1,980 Level FlightAware
10:43AM 48.6020 -55.6190 252° West 377 434 24,300 1,980 Climbing FlightAware
10:44AM 48.5840 -55.7050 252° West 377 434 24,300 1,620 Level FlightAware
10:44AM 48.5580 -55.8320 253° West 395 455 26,500 1,620 Climbing FlightAware
10:45AM 48.5390 -55.9210 252° West 395 455 26,500 1,800 Level FlightAware
10:48AM 48.4310 -56.4420 253° West 34,300 2,100 Climbing FlightAware
10:49AM 48.4030 -56.5730 252° West 386 444 35,100 480 Climbing FlightAware
10:50AM 48.3840 -56.6600 252° West 386 444 35,100  Level FlightAware
10:51AM 48.3610 -56.7690 252° West 386 444 35,100 1,920 Level FlightAware
10:51AM 48.3320 -56.9030 252° West 372 428 38,000 2,160 Climbing FlightAware
10:52AM 48.3120 -56.9920 251° West 371 427 38,000  Level FlightAware
10:53AM 48.2900 -57.0970 253° West 369 425 38,000  Level FlightAware
10:53AM 48.2680 -57.1930 251° West 369 425 38,000  Level FlightAware
10:54AM 48.2450 -57.3010 252° West 382 440 38,000  Level FlightAware
10:55AM 48.2180 -57.4240 252° West 386 444 38,000  Level FlightAware
10:55AM 48.2000 -57.5060 252° West 387 445 38,000  Level FlightAware
10:56AM 48.1740 -57.6260 252° West 387 445 38,000  Level FlightAware
10:57AM 48.1490 -57.7400 252° West 387 445 38,000  Level FlightAware
10:58AM 48.1280 -57.8370 252° West 387 445 38,000  Level FlightAware
10:58AM 48.1020 -57.9540 252° West 385 443 38,000  Level FlightAware
10:59AM 48.0810 -58.0440 251° West 385 443 38,000  Level FlightAware
10:59AM 48.0660 -58.1080 251° West 385 443 38,000  Level FlightAware
11:00AM 48.0460 -58.1940 251° West 385 443 38,000  Level FlightAware
11:01AM 48.0270 -58.2800 252° West 385 443 38,000  Level FlightAware
11:01AM 48.0070 -58.3650 251° West 385 443 38,000  Level FlightAware
11:02AM 47.9820 -58.4720 251° West 385 443 38,000  Level FlightAware
11:03AM 47.9630 -58.5580 252° West 385 443 38,000  Level FlightAware
11:04AM 47.9430 -58.6430 251° West 385 443 38,000  Level FlightAware
11:04AM 47.9230 -58.7290 251° West 385 443 38,000  Level FlightAware
11:05AM 47.8980 -58.8360 251° West 385 443 38,000  Level FlightAware
11:06AM 47.8790 -58.9210 252° West 385 443 38,000  Level FlightAware
11:06AM 47.8590 -59.0060 251° West 385 443 38,000  Level FlightAware
11:07AM 47.8390 -59.0920 251° West 385 443 38,000  Level FlightAware
11:08AM 47.8190 -59.1770 251° West 385 443 38,000  Level FlightAware
11:13AM 47.6070 -60.0780 251° West 385 443 38,000  Level FlightAware
11:13AM 47.5830 -60.1730 249° West 385 443 38,000  Level FlightAware
11:14AM 47.5560 -60.2850 250° West 386 444 38,000  Level FlightAware
11:14AM 47.5390 -60.3570 251° West 386 444 38,000  Level FlightAware
11:15AM 47.5080 -60.4790 249° West 387 445 38,000  Level FlightAware
11:16AM 47.4840 -60.5770 250° West 387 445 38,000  Level FlightAware
11:17AM 47.4620 -60.6610 249° West 387 445 38,000  Level FlightAware
11:17AM 47.4340 -60.7660 249° West 387 445 38,000  Level FlightAware
11:18AM 47.4130 -60.8500 250° West 387 445 38,000  Level FlightAware
11:19AM 47.3730 -61.0190 251° West 389 448 38,000  Level FlightAware
11:20AM 47.3480 -61.1180 250° West 390 449 38,000  Level FlightAware
11:20AM 47.3230 -61.2180 250° West 392 451 38,000  Level FlightAware
11:21AM 47.2940 -61.3320 249° West 393 452 38,000  Level FlightAware
11:22AM 47.2680 -61.4290 248° West 394 453 38,000  Level FlightAware
11:22AM 47.2420 -61.5320 250° West 394 453 38,000  Level FlightAware
11:23AM 47.2150 -61.6370 249° West 395 455 38,000  Level FlightAware
11:24AM 47.1870 -61.7430 249° West 397 457 38,000  Level FlightAware
11:24AM 47.1570 -61.8580 249° West 398 458 38,000  Level FlightAware
11:25AM 47.1320 -61.9520 249° West 398 458 38,000  Level FlightAware
11:26AM 47.1100 -62.0350 249° West 398 458 38,000  Level FlightAware
11:27AM 47.0800 -62.1420 248° West 398 458 38,000  Level FlightAware
11:27AM 47.0570 -62.2270 248° West 398 458 38,000  Level FlightAware
11:28AM 47.0330 -62.3120 248° West 398 458 38,000  Level FlightAware
11:29AM 47.0100 -62.3970 248° West 398 458 38,000  Level FlightAware
11:29AM 46.9870 -62.4820 248° West 398 458 38,000  Level FlightAware
11:30AM 46.9570 -62.5890 248° West 398 458 38,000  Level FlightAware
11:31AM 46.9340 -62.6740 248° West 398 458 38,000  Level FlightAware
11:31AM 46.9100 -62.7590 248° West 398 458 38,000  Level FlightAware
11:32AM 46.8870 -62.8440 248° West 398 458 38,000  Level FlightAware
11:33AM 46.8580 -62.9500 248° West 398 458 38,000  Level FlightAware
11:34AM 46.8340 -63.0350 248° West 398 458 38,000  Level FlightAware
11:34AM 46.8110 -63.1190 248° West 398 458 38,000  Level FlightAware
11:35AM 46.7870 -63.2040 248° West 398 458 38,000  Level FlightAware
11:39AM 46.5440 -64.0730 248° West 406 467 38,000  Level FlightAware
11:40AM 46.5110 -64.1860 247° West 407 468 38,000  Level FlightAware
11:41AM 46.4820 -64.2840 247° West 407 468 38,000  Level FlightAware
11:41AM 46.4570 -64.3700 247° West 407 468 38,000  Level FlightAware
11:42AM 46.4320 -64.4550 247° West 407 468 38,000  Level FlightAware
11:43AM 46.3740 -64.6460 246° West 408 470 38,000  Level FlightAware
11:44AM 46.3480 -64.7300 246° West 408 470 38,000  Level FlightAware
11:45AM 46.3150 -64.8370 246° West 408 470 38,000  Level FlightAware
11:45AM 46.2890 -64.9210 246° West 408 470 38,000  Level FlightAware
11:46AM 46.2450 -65.0740 247° West 404 465 38,000  Level FlightAware
11:47AM 46.2180 -65.1610 246° West 404 465 38,000  Level FlightAware
11:47AM 46.1840 -65.2740 247° West 403 464 38,000  Level FlightAware
11:48AM 46.1480 -65.3880 246° West 403 464 38,000  Level FlightAware
11:49AM 46.1160 -65.4920 246° West 403 464 38,000  Level FlightAware
11:49AM 46.0860 -65.5900 246° West 403 464 38,000  Level FlightAware
11:50AM 46.0520 -65.6980 246° West 404 465 38,000  Level FlightAware
11:51AM 46.0210 -65.7960 246° West 405 466 38,000  Level FlightAware
11:51AM 45.9900 -65.8940 246° West 406 467 38,000  Level FlightAware
11:52AM 45.9540 -66.0060 245° Southwest 405 466 38,000  Level FlightAware
11:53AM 45.9250 -66.0990 246° West 404 465 38,000  Level FlightAware
11:54AM 45.8890 -66.2110 245° Southwest 403 464 38,000  Level FlightAware
11:54AM 45.8570 -66.3100 245° Southwest 404 465 38,000  Level FlightAware
11:55AM 45.8260 -66.4060 245° Southwest 404 465 38,000  Level FlightAware
11:56AM 45.7920 -66.5120 245° Southwest 404 465 38,000  Level FlightAware
11:56AM 45.7600 -66.6090 245° Southwest 403 464 38,000  Level FlightAware
11:57AM 45.7280 -66.7090 245° Southwest 404 465 38,000  Level FlightAware
11:58AM 45.6830 -66.8460 245° Southwest 402 463 38,000  Level FlightAware
11:59AM 45.6500 -66.9440 244° Southwest 402 463 38,000  Level FlightAware
11:59AM 45.6160 -67.0490 245° Southwest 402 463 38,000  Level FlightAware
12:00PM 45.5830 -67.1460 244° Southwest 401 461 38,000  Level FlightAware
12:01PM 45.5510 -67.2440 245° Southwest 406 467 38,000  Level FlightAware
12:02PM 45.5140 -67.3540 244° Southwest 405 466 38,000  Level FlightAware
12:02PM 45.4820 -67.4490 244° Southwest 407 468 38,000  Level FlightAware
12:03PM 45.4450 -67.5570 244° Southwest 407 468 38,000  Level FlightAware
12:04PM 45.4120 -67.6540 244° Southwest 408 470 38,000 -540 Level FlightAware
12:04PM 45.3750 -67.7650 245° Southwest 417 480 37,300 -960 Descending FlightAware
12:05PM 45.3410 -67.8640 244° Southwest 418 481 36,700 -1,020 Descending FlightAware
12:06PM 45.3060 -67.9660 244° Southwest 416 479 36,000 -1,020 Descending FlightAware
12:06PM 45.2680 -68.0760 244° Southwest 419 482 35,300 -1,020 Descending FlightAware
12:07PM 45.2340 -68.1770 244° Southwest 422 486 34,600 -1,020 Descending FlightAware
12:08PM 45.2000 -68.2740 244° Southwest 425 489 34,000 -480 Descending FlightAware
12:09PM 45.1640 -68.3790 244° Southwest 426 490 34,000  Level FlightAware
12:09PM 45.1230 -68.4950 243° Southwest 432 497 34,000  Level FlightAware
12:10PM 45.0840 -68.6080 244° Southwest 434 499 34,000  Level FlightAware
12:11PM 45.0470 -68.7130 244° Southwest 435 501 34,000  Level FlightAware
12:11PM 45.0070 -68.8250 243° Southwest 434 499 34,000  Level FlightAware
12:12PM 44.9720 -68.9260 244° Southwest 434 499 34,000  Level FlightAware
12:13PM 44.9360 -69.0280 244° Southwest 433 498 34,000  Level FlightAware
12:13PM 44.8950 -69.1430 243° Southwest 432 497 34,000  Level FlightAware
12:14PM 44.8600 -69.2410 243° Southwest 432 497 34,000 -120 Level FlightAware
12:15PM 44.8190 -69.3550 243° Southwest 435 501 33,900 -600 Descending FlightAware
12:16PM 44.7830 -69.4550 243° Southwest 442 509 33,200 -1,020 Descending FlightAware
12:16PM 44.7460 -69.5580 243° Southwest 441 507 32,600 -960 Descending FlightAware
12:17PM 44.7140 -69.6460 243° Southwest 441 507 32,000 -480 Descending FlightAware
12:18PM 44.6680 -69.7730 243° Southwest 432 497 32,000  Level FlightAware
12:18PM 44.6310 -69.8730 243° Southwest 433 498 32,000  Level FlightAware
12:19PM 44.5930 -69.9770 243° Southwest 434 499 32,000  Level FlightAware
12:20PM 44.5520 -70.0890 243° Southwest 431 496 32,000  Level FlightAware
12:20PM 44.5130 -70.1970 243° Southwest 434 499 32,000  Level FlightAware
12:21PM 44.4750 -70.2980 242° Southwest 432 497 32,000  Level FlightAware
12:22PM 44.4340 -70.4110 243° Southwest 432 497 32,000  Level FlightAware
12:23PM 44.3970 -70.5100 242° Southwest 429 494 32,000  Level FlightAware
12:23PM 44.3610 -70.6070 243° Southwest 428 493 32,000  Level FlightAware
12:24PM 44.3200 -70.7160 242° Southwest 428 493 32,000  Level FlightAware
12:25PM 44.2840 -70.8120 242° Southwest 427 491 32,000  Level FlightAware
12:25PM 44.2490 -70.9060 243° Southwest 425 489 32,000  Level FlightAware
12:26PM 44.2050 -71.0220 242° Southwest 425 489 32,000  Level FlightAware
12:27PM 44.1700 -71.1150 242° Southwest 426 490 32,000  Level FlightAware
12:27PM 44.1270 -71.2260 242° Southwest 426 490 32,000  Level FlightAware
12:28PM 44.0910 -71.3220 242° Southwest 427 491 32,000  Level FlightAware
12:29PM 44.0490 -71.4310 242° Southwest 425 489 32,000  Level FlightAware
12:30PM 44.0130 -71.5250 242° Southwest 428 493 32,000  Level FlightAware
12:30PM 43.9750 -71.6250 242° Southwest 428 493 32,000  Level FlightAware
12:31PM 43.9350 -71.7280 242° Southwest 429 494 32,000  Level FlightAware
12:32PM 43.8960 -71.8280 242° Southwest 429 494 32,000  Level FlightAware
12:32PM 43.8520 -71.9420 242° Southwest 425 489 32,000  Level FlightAware
12:33PM 43.8150 -72.0350 241° Southwest 425 489 32,000  Level FlightAware
12:34PM 43.7780 -72.1300 242° Southwest 424 488 32,000  Level FlightAware
12:34PM 43.7360 -72.2370 242° Southwest 423 487 32,000  Level FlightAware
12:35PM 43.6990 -72.3310 241° Southwest 421 484 32,000  Level FlightAware
12:36PM 43.6580 -72.4350 241° Southwest 420 483 32,000  Level FlightAware
12:37PM 43.6190 -72.5330 241° Southwest 419 482 32,000  Level FlightAware
12:37PM 43.5830 -72.6250 242° Southwest 419 482 32,000  Level FlightAware
12:38PM 43.5410 -72.7290 241° Southwest 423 487 32,000  Level FlightAware
12:39PM 43.5040 -72.8230 242° Southwest 422 486 32,000  Level FlightAware
12:39PM 43.4600 -72.9320 241° Southwest 422 486 32,000  Level FlightAware
12:40PM 43.4220 -73.0270 241° Southwest 423 487 32,000  Level FlightAware
12:41PM 43.3860 -73.1140 240° Southwest 422 486 32,000 -180 Level FlightAware
12:41PM 43.3420 -73.2220 241° Southwest 421 484 31,800 -1,080 Descending FlightAware
12:42PM 43.3110 -73.2990 241° Southwest 415 478 30,500 -2,760 Descending FlightAware
12:43PM 43.2750 -73.3890 241° Southwest 428 493 28,400 -2,700 Descending FlightAware
12:43PM 43.2590 -73.4260 239° Southwest 429 494 27,600 -1,680 Descending FlightAware
12:44PM 43.1980 -73.5740 241° Southwest 421 484 26,200 -3,420 Descending FlightAware
12:44PM 43.1810 -73.5970 225° Southwest 409 471 24,200 -4,080 Descending FlightAware
12:45PM 43.1140 -73.6420 206° Southwest 389 448 22,800 -1,980 Descending FlightAware
12:46PM 43.0360 -73.6760 198° South 377 434 21,400 -1,860 Descending FlightAware
12:46PM 42.9690 -73.7040 197° South 377 434 20,200 -1,800 Descending FlightAware
12:47PM 42.8960 -73.7350 197° South 377 434 18,900 -1,680 Descending FlightAware
12:48PM 42.8300 -73.7630 197° South 363 418 17,900 -1,560 Descending FlightAware
12:48PM 42.7580 -73.7930 197° South 343 395 16,700 -1,200 Descending FlightAware
12:49PM 42.7000 -73.8180 198° South 330 380 16,200 -360 Descending FlightAware
12:50PM 42.6350 -73.8490 199° South 337 388 16,200  Level FlightAware
12:51PM 42.5620 -73.8810 198° South 338 389 16,200  Level FlightAware
12:51PM 42.5070 -73.9060 199° South 343 395 16,200  Level FlightAware
12:52PM 42.4480 -73.9320 198° South 343 395 16,200  Level FlightAware
12:53PM 42.3830 -73.9600 198° South 343 395 16,200  Level FlightAware
12:54PM 42.3320 -73.9830 198° South 343 395 16,200  Level FlightAware
12:54PM 42.2810 -74.0050 198° South 343 395 16,200  Level FlightAware
12:55PM 42.2300 -74.0280 198° South 343 395 16,200 -240 Level FlightAware
01:01PM 41.7140 -74.2530 198° South 264 304 14,900 -240 Descending FlightAware
01:02PM 41.6780 -74.2670 196° South 264 304 14,900 -1,500 Level FlightAware
01:02PM 41.6210 -74.2920 198° South 257 296 12,900 -1,680 Descending FlightAware
01:03PM 41.5800 -74.3090 197° South 255 293 12,600 -240 Descending FlightAware
01:04PM 41.5420 -74.3250 197° South 255 293 12,600 -1,740 Level FlightAware
01:05PM 41.4780 -74.3530 198° South 246 283 10,000 -1,800 Descending FlightAware
01:05PM 41.4400 -74.3680 196° South 246 283 9,900 -120 Descending FlightAware
01:06PM 41.4130 -74.3790 197° South 246 283 9,900  Level FlightAware
01:06PM 41.3940 -74.3870 198° South 246 283 9,900  Level FlightAware
01:07PM 41.3660 -74.3980 196° South 246 283 9,900 -960 Level FlightAware
01:11PM 41.1206 -74.3524 172° South 212 244 5,100 -960 Descending FlightAware ADS-B
01:12PM 41.0966 -74.3260 140° Southeast 212 244 5,100  Level FlightAware ADS-B
01:12PM 41.0851 -74.3141 142° Southeast 206 237 5,100  Level FlightAware ADS-B
01:12PM 41.0793 -74.3109 157° South 200 230 5,100  Level FlightAware ADS-B
01:13PM 41.0310 -74.3110 180° South 190 219 5,100  Level FlightAware
01:13PM 41.0133 -74.3114 181° South 194 223 5,100  Level FlightAware ADS-B
01:14PM 40.9788 -74.3126 182° South 193 222 5,100  Level FlightAware ADS-B
01:14PM 40.9646 -74.3119 178° South 198 228 5,100  Level FlightAware ADS-B
01:14PM 40.9558 -74.3076 160° South 210 242 5,100  Level FlightAware ADS-B
01:15PM 40.9471 -74.2957 134° Southeast 227 261 5,100  Level FlightAware ADS-B
01:15PM 40.9446 -74.2892 117° Southeast 236 272 5,100  Level FlightAware ADS-B
01:15PM 40.9436 -74.2849 107° East 240 276 5,100  Level FlightAware ADS-B
01:15PM 40.9428 -74.2793 101° East 245 282 5,100  Level FlightAware ADS-B
01:15PM 40.9416 -74.2693 99° East 250 288 5,100 -360 Level FlightAware ADS-B
01:15PM 40.9371 -74.2284 98° East 239 275 4,900 -720 Descending FlightAware ADS-B
01:16PM 40.9301 -74.2057 112° Southeast 233 268 4,600 -1,020 Descending FlightAware ADS-B
01:16PM 40.9230 -74.1896 120° Southeast 231 266 4,400 -900 Descending FlightAware ADS-B
01:16PM 40.9107 -74.1670 126° Southeast 224 258 4,100 -420 Descending FlightAware ADS-B
01:17PM 40.8935 -74.1380 128° Southeast 223 257 4,100 -420 Level FlightAware ADS-B
01:17PM 40.8820 -74.1184 128° Southeast 226 260 3,800 -960 Descending FlightAware ADS-B
01:17PM 40.8653 -74.0894 127° Southeast 224 258 3,400 -960 Descending FlightAware ADS-B
01:18PM 40.8585 -74.0774 127° Southeast 219 252 3,200 -1,140 Descending FlightAware ADS-B
01:18PM 40.8551 -74.0719 129° Southeast 213 245 3,100 -720 Descending FlightAware ADS-B
01:18PM 40.8528 -74.0687 134° Southeast 209 241 3,100  Level FlightAware ADS-B
01:18PM 40.8502 -74.0659 141° Southeast 202 232 3,100  Level FlightAware ADS-B
01:18PM 40.8463 -74.0626 147° Southeast 192 221 3,100  Level FlightAware ADS-B
01:18PM 40.8434 -74.0607 154° Southeast 185 213 3,100  Level FlightAware ADS-B
01:18PM 40.8384 -74.0583 160° South 176 203 3,100  Level FlightAware ADS-B
01:18PM 40.8271 -74.0592 183° South 150 173 3,100 -480 Level FlightAware ADS-B
01:18PM 40.8192 -74.0642 206° Southwest 144 166 2,900 -840 Descending FlightAware ADS-B
01:19PM 40.8135 -74.0676 204° Southwest 140 161 2,800 -600 Descending FlightAware ADS-B
01:19PM 40.8072 -74.0716 206° Southwest 136 157 2,700 -720 Descending FlightAware ADS-B
01:19PM 40.7886 -74.0834 206° Southwest 135 155 2,300 -780 Descending FlightAware ADS-B
01:20PM 40.7801 -74.0889 206° Southwest 135 155 2,100 -780 Descending FlightAware ADS-B
01:20PM 40.7710 -74.0945 205° Southwest 137 158 1,900 -660 Descending FlightAware ADS-B
01:20PM 40.7646 -74.0984 205° Southwest 127 146 1,800 -660 Descending FlightAware ADS-B
01:20PM 40.7556 -74.1040 205° Southwest 129 148 1,600 -840 Descending FlightAware ADS-B
01:21PM 40.7488 -74.1083 206° Southwest 118 136 1,400 -720 Descending FlightAware ADS-B
01:21PM 40.7421 -74.1124 205° Southwest 114 131 1,300 -480 Descending FlightAware ADS-B
01:21PM 40.7351 -74.1169 206° Southwest 122 140 1,200 -600 Descending FlightAware ADS-B
01:22PM 40.7208 -74.1260 206° Southwest 119 137 900 -660 Descending FlightAware ADS-B